Adams, Nebraska
Current Conditions -  °F | °C
As of 3:15 PM on Friday 24 Oct 2014 (Local Time) from KBIE Reporting Station
Clear Clear  
Wind Chill: 25°   Ceiling: Unl
Heat Index: 26°   Visibility: 10mi
Dew Point: 16°   Wind: 12mph
Humidity: 56%   Direction: 260°W
Pressure: 29.91"   Gusts: 17mph
Location:  40.46°N, 96.51°W
Report Text: KBIE 242015Z AUTO 26010G15KT 10SM CLR 25/16 A2991 RMK AO2 T02500158
Loading
Personal Weather Stations






























Interactive Weather Map New forecast layout! Learn more

10-Day Weather Forecast

Advertisements
Track Severe Weather on mobile